sensor_id;sensor_type;location;lat;lon;timestamp;pressure;altitude;pressure_sealevel;temperature;humidity
56241;BME280;42155;53.096;23.226;2023-05-22T00:00:49;100502.84;;;11.19;72.65
56241;BME280;42155;53.096;23.226;2023-05-22T00:02:49;100531.06;;;11.33;72.06
56241;BME280;42155;53.096;23.226;2023-05-22T00:04:49;100529.31;;;11.32;72.91
56241;BME280;42155;53.096;23.226;2023-05-22T00:06:50;100435.91;;;10.79;72.24
56241;BME280;42155;53.096;23.226;2023-05-22T00:08:50;100469.78;;;10.99;72.80
56241;BME280;42155;53.096;23.226;2023-05-22T00:10:50;100524.75;;;11.34;72.86
56241;BME280;42155;53.096;23.226;2023-05-22T00:12:51;100504.28;;;11.23;72.45
56241;BME280;42155;53.096;23.226;2023-05-22T00:14:51;100514.56;;;11.28;72.51
56241;BME280;42155;53.096;23.226;2023-05-22T00:16:51;100521.25;;;11.33;72.29
56241;BME280;42155;53.096;23.226;2023-05-22T00:18:52;100441.59;;;10.85;72.43
56241;BME280;42155;53.096;23.226;2023-05-22T00:20:52;100478.25;;;11.04;72.56
56241;BME280;42155;53.096;23.226;2023-05-22T00:22:52;100515.09;;;11.33;72.99
56241;BME280;42155;53.096;23.226;2023-05-22T00:24:53;100487.47;;;11.11;72.67
56241;BME280;42155;53.096;23.226;2023-05-22T00:26:53;100510.00;;;11.30;72.70
56241;BME280;42155;53.096;23.226;2023-05-22T00:28:53;100503.69;;;11.19;73.54
56241;BME280;42155;53.096;23.226;2023-05-22T00:30:54;100503.44;;;11.22;73.38
56241;BME280;42155;53.096;23.226;2023-05-22T00:32:54;100517.63;;;11.34;73.37
56241;BME280;42155;53.096;23.226;2023-05-22T00:34:54;100518.47;;;11.35;73.47
56241;BME280;42155;53.096;23.226;2023-05-22T00:36:55;100520.06;;;11.37;73.31
56241;BME280;42155;53.096;23.226;2023-05-22T00:38:55;100507.84;;;11.35;73.17
56241;BME280;42155;53.096;23.226;2023-05-22T00:40:55;100519.72;;;11.42;73.63
56241;BME280;42155;53.096;23.226;2023-05-22T00:42:56;100517.78;;;11.44;73.98
56241;BME280;42155;53.096;23.226;2023-05-22T00:44:56;100518.75;;;11.43;73.59
56241;BME280;42155;53.096;23.226;2023-05-22T00:46:56;100522.03;;;11.46;74.17
56241;BME280;42155;53.096;23.226;2023-05-22T00:48:57;100514.78;;;11.48;74.26
56241;BME280;42155;53.096;23.226;2023-05-22T00:50:58;100509.69;;;11.45;74.13
56241;BME280;42155;53.096;23.226;2023-05-22T00:52:59;100516.59;;;11.48;73.83
56241;BME280;42155;53.096;23.226;2023-05-22T00:55:00;100513.81;;;11.50;74.23
56241;BME280;42155;53.096;23.226;2023-05-22T00:57:01;100517.31;;;11.50;74.10
56241;BME280;42155;53.096;23.226;2023-05-22T00:59:02;100521.44;;;11.54;73.89
56241;BME280;42155;53.096;23.226;2023-05-22T01:01:03;100518.69;;;11.56;74.20
56241;BME280;42155;53.096;23.226;2023-05-22T01:03:04;100477.03;;;11.32;73.76
56241;BME280;42155;53.096;23.226;2023-05-22T01:05:04;100508.06;;;11.56;73.75
56241;BME280;42155;53.096;23.226;2023-05-22T01:07:05;100518.09;;;11.63;74.30
56241;BME280;42155;53.096;23.226;2023-05-22T01:09:05;100515.09;;;11.68;73.76
56241;BME280;42155;53.096;23.226;2023-05-22T01:11:14;100517.66;;;11.69;73.85
56241;BME280;42155;53.096;23.226;2023-05-22T01:15:31;100514.63;;;11.74;73.63
56241;BME280;42155;53.096;23.226;2023-05-22T01:17:45;100514.50;;;11.76;73.63
56241;BME280;42155;53.096;23.226;2023-05-22T01:20:07;100491.50;;;11.63;73.76
56241;BME280;42155;53.096;23.226;2023-05-22T01:24:30;100510.06;;;11.87;74.19
56241;BME280;42155;53.096;23.226;2023-05-22T01:31:01;100498.63;;;11.98;73.89
56241;BME280;42155;53.096;23.226;2023-05-22T01:33:05;100513.13;;;12.05;73.92
56241;BME280;42155;53.096;23.226;2023-05-22T01:35:09;100502.25;;;12.08;73.56
56241;BME280;42155;53.096;23.226;2023-05-22T01:37:10;100510.94;;;12.10;73.85
56241;BME280;42155;53.096;23.226;2023-05-22T01:39:13;100501.91;;;12.13;73.96
56241;BME280;42155;53.096;23.226;2023-05-22T01:41:15;100503.44;;;12.15;74.20
56241;BME280;42155;53.096;23.226;2023-05-22T01:43:16;100487.84;;;12.11;73.84
56241;BME280;42155;53.096;23.226;2023-05-22T01:45:16;100500.34;;;12.21;73.65
56241;BME280;42155;53.096;23.226;2023-05-22T01:47:17;100491.50;;;12.21;73.96
56241;BME280;42155;53.096;23.226;2023-05-22T01:49:17;100504.69;;;12.22;73.86
56241;BME280;42155;53.096;23.226;2023-05-22T01:51:28;100493.53;;;12.29;74.18
56241;BME280;42155;53.096;23.226;2023-05-22T01:53:51;100497.19;;;12.28;73.73
56241;BME280;42155;53.096;23.226;2023-05-22T01:55:56;100504.09;;;12.30;74.53
56241;BME280;42155;53.096;23.226;2023-05-22T02:00:24;100496.81;;;12.32;73.91
56241;BME280;42155;53.096;23.226;2023-05-22T02:02:26;100503.97;;;12.32;73.86
56241;BME280;42155;53.096;23.226;2023-05-22T02:04:28;100491.34;;;12.34;74.32
56241;BME280;42155;53.096;23.226;2023-05-22T02:06:30;100497.56;;;12.34;74.19
56241;BME280;42155;53.096;23.226;2023-05-22T02:08:37;100497.28;;;12.37;74.41
56241;BME280;42155;53.096;23.226;2023-05-22T02:10:39;100498.13;;;12.38;74.49
56241;BME280;42155;53.096;23.226;2023-05-22T02:12:41;100467.44;;;12.22;74.11
56241;BME280;42155;53.096;23.226;2023-05-22T02:14:41;100462.09;;;12.22;74.21
56241;BME280;42155;53.096;23.226;2023-05-22T02:16:42;100462.09;;;12.22;74.37
56241;BME280;42155;53.096;23.226;2023-05-22T02:18:42;100491.13;;;12.37;74.44
56241;BME280;42155;53.096;23.226;2023-05-22T02:20:44;100493.78;;;12.37;73.95
56241;BME280;42155;53.096;23.226;2023-05-22T02:22:46;100498.97;;;12.38;74.66
56241;BME280;42155;53.096;23.226;2023-05-22T02:24:47;100487.25;;;12.41;74.11
56241;BME280;42155;53.096;23.226;2023-05-22T02:26:48;100472.63;;;12.35;73.99
56241;BME280;42155;53.096;23.226;2023-05-22T02:28:48;100480.47;;;12.37;74.25
56241;BME280;42155;53.096;23.226;2023-05-22T02:30:48;100481.22;;;12.39;74.36
56241;BME280;42155;53.096;23.226;2023-05-22T02:32:49;100481.69;;;12.44;74.49
56241;BME280;42155;53.096;23.226;2023-05-22T02:34:49;100490.41;;;12.46;74.12
56241;BME280;42155;53.096;23.226;2023-05-22T02:36:49;100484.84;;;12.49;74.28
56241;BME280;42155;53.096;23.226;2023-05-22T02:38:50;100483.16;;;12.48;73.95
56241;BME280;42155;53.096;23.226;2023-05-22T02:40:50;100479.25;;;12.52;74.41
56241;BME280;42155;53.096;23.226;2023-05-22T02:42:50;100484.47;;;12.54;73.98
56241;BME280;42155;53.096;23.226;2023-05-22T02:44:50;100481.44;;;12.58;73.55
56241;BME280;42155;53.096;23.226;2023-05-22T02:46:51;100482.63;;;12.65;73.60
56241;BME280;42155;53.096;23.226;2023-05-22T02:48:51;100475.84;;;12.72;73.14
56241;BME280;42155;53.096;23.226;2023-05-22T02:50:51;100476.53;;;12.86;71.69
56241;BME280;42155;53.096;23.226;2023-05-22T02:52:52;100483.03;;;12.93;72.05
56241;BME280;42155;53.096;23.226;2023-05-22T02:54:52;100467.31;;;12.90;71.53
56241;BME280;42155;53.096;23.226;2023-05-22T02:56:52;100476.25;;;13.00;71.68
56241;BME280;42155;53.096;23.226;2023-05-22T02:58:53;100477.34;;;12.97;72.07
56241;BME280;42155;53.096;23.226;2023-05-22T03:00:53;100482.56;;;12.99;72.55
56241;BME280;42155;53.096;23.226;2023-05-22T03:02:54;100475.50;;;12.98;72.79
56241;BME280;42155;53.096;23.226;2023-05-22T03:04:54;100481.69;;;12.98;72.61
56241;BME280;42155;53.096;23.226;2023-05-22T03:06:54;100472.50;;;12.91;72.43
56241;BME280;42155;53.096;23.226;2023-05-22T03:08:55;100481.09;;;12.95;72.18
56241;BME280;42155;53.096;23.226;2023-05-22T03:10:57;100484.34;;;12.98;72.35
56241;BME280;42155;53.096;23.226;2023-05-22T03:12:58;100479.63;;;13.02;72.53
56241;BME280;42155;53.096;23.226;2023-05-22T03:14:58;100475.03;;;13.04;72.41
56241;BME280;42155;53.096;23.226;2023-05-22T03:16:58;100481.19;;;13.05;73.14
56241;BME280;42155;53.096;23.226;2023-05-22T03:19:12;100480.22;;;13.06;72.95
56241;BME280;42155;53.096;23.226;2023-05-22T03:21:13;100435.13;;;12.82;73.36
56241;BME280;42155;53.096;23.226;2023-05-22T03:23:13;100473.91;;;13.07;73.18
56241;BME280;42155;53.096;23.226;2023-05-22T03:25:14;100470.25;;;13.08;72.48
56241;BME280;42155;53.096;23.226;2023-05-22T03:27:14;100433.91;;;12.86;72.98
56241;BME280;42155;53.096;23.226;2023-05-22T03:29:15;100475.22;;;13.12;73.36
56241;BME280;42155;53.096;23.226;2023-05-22T03:31:15;100476.78;;;13.15;73.20
56241;BME280;42155;53.096;23.226;2023-05-22T03:33:15;100472.91;;;13.19;73.64
56241;BME280;42155;53.096;23.226;2023-05-22T03:35:15;100459.13;;;13.14;73.68
56241;BME280;42155;53.096;23.226;2023-05-22T03:37:16;100469.63;;;13.27;73.72
56241;BME280;42155;53.096;23.226;2023-05-22T03:39:16;100472.75;;;13.32;73.41
56241;BME280;42155;53.096;23.226;2023-05-22T03:41:17;100467.88;;;13.37;73.55
56241;BME280;42155;53.096;23.226;2023-05-22T03:43:17;100467.59;;;13.40;73.67
56241;BME280;42155;53.096;23.226;2023-05-22T03:45:19;100458.38;;;13.44;73.17
56241;BME280;42155;53.096;23.226;2023-05-22T03:47:19;100448.25;;;13.38;73.74
56241;BME280;42155;53.096;23.226;2023-05-22T03:49:19;100466.06;;;13.58;72.88
56241;BME280;42155;53.096;23.226;2023-05-22T03:51:20;100470.88;;;13.64;72.46
56241;BME280;42155;53.096;23.226;2023-05-22T03:53:20;100468.78;;;13.68;72.19
56241;BME280;42155;53.096;23.226;2023-05-22T03:55:20;100449.94;;;13.60;71.28
56241;BME280;42155;53.096;23.226;2023-05-22T03:57:21;100471.53;;;13.78;69.83
56241;BME280;42155;53.096;23.226;2023-05-22T03:59:21;100469.03;;;13.86;70.13
56241;BME280;42155;53.096;23.226;2023-05-22T04:01:21;100472.88;;;13.93;70.05
56241;BME280;42155;53.096;23.226;2023-05-22T04:03:22;100467.72;;;14.01;69.93
56241;BME280;42155;53.096;23.226;2023-05-22T04:05:22;100455.34;;;14.00;69.41
56241;BME280;42155;53.096;23.226;2023-05-22T04:07:22;100430.44;;;13.90;68.87
56241;BME280;42155;53.096;23.226;2023-05-22T04:09:25;100475.53;;;14.23;68.10
56241;BME280;42155;53.096;23.226;2023-05-22T04:11:26;100467.09;;;14.28;67.65
56241;BME280;42155;53.096;23.226;2023-05-22T04:13:26;100466.19;;;14.39;66.96
56241;BME280;42155;53.096;23.226;2023-05-22T04:15:26;100460.16;;;14.46;66.86
56241;BME280;42155;53.096;23.226;2023-05-22T04:17:30;100462.03;;;14.56;65.76
56241;BME280;42155;53.096;23.226;2023-05-22T04:19:31;100456.00;;;14.63;66.19
56241;BME280;42155;53.096;23.226;2023-05-22T04:21:31;100461.69;;;14.80;66.14
56241;BME280;42155;53.096;23.226;2023-05-22T04:23:31;100463.09;;;14.93;65.33
56241;BME280;42155;53.096;23.226;2023-05-22T04:25:32;100462.28;;;15.02;64.80
56241;BME280;42155;53.096;23.226;2023-05-22T04:27:32;100458.19;;;15.08;64.29
56241;BME280;42155;53.096;23.226;2023-05-22T04:29:33;100459.31;;;15.15;64.37
56241;BME280;42155;53.096;23.226;2023-05-22T04:31:33;100457.50;;;15.25;64.48
56241;BME280;42155;53.096;23.226;2023-05-22T04:33:33;100448.75;;;15.33;63.91
56241;BME280;42155;53.096;23.226;2023-05-22T04:35:33;100459.16;;;15.46;63.89
56241;BME280;42155;53.096;23.226;2023-05-22T04:37:34;100469.84;;;15.56;63.75
56241;BME280;42155;53.096;23.226;2023-05-22T04:39:34;100454.63;;;15.66;63.90
56241;BME280;42155;53.096;23.226;2023-05-22T04:41:35;100449.00;;;15.69;63.59
56241;BME280;42155;53.096;23.226;2023-05-22T04:43:35;100450.69;;;15.70;62.99
56241;BME280;42155;53.096;23.226;2023-05-22T04:45:35;100450.97;;;15.76;63.16
56241;BME280;42155;53.096;23.226;2023-05-22T04:47:36;100364.59;;;15.27;62.66
56241;BME280;42155;53.096;23.226;2023-05-22T04:49:36;100450.53;;;15.81;62.55
56241;BME280;42155;53.096;23.226;2023-05-22T04:51:37;100450.84;;;15.68;62.26
56241;BME280;42155;53.096;23.226;2023-05-22T04:53:37;100450.97;;;15.76;62.64
56241;BME280;42155;53.096;23.226;2023-05-22T04:55:37;100421.25;;;15.60;62.31
56241;BME280;42155;53.096;23.226;2023-05-22T04:57:38;100438.88;;;15.72;62.31
56241;BME280;42155;53.096;23.226;2023-05-22T04:59:39;100447.00;;;15.81;61.76
56241;BME280;42155;53.096;23.226;2023-05-22T05:01:39;100457.69;;;15.81;61.67
56241;BME280;42155;53.096;23.226;2023-05-22T05:03:39;100455.75;;;15.73;61.88
56241;BME280;42155;53.096;23.226;2023-05-22T05:05:40;100451.53;;;15.70;61.95
56241;BME280;42155;53.096;23.226;2023-05-22T05:07:41;100453.66;;;15.76;61.34
56241;BME280;42155;53.096;23.226;2023-05-22T05:09:42;100460.94;;;15.84;61.47
56241;BME280;42155;53.096;23.226;2023-05-22T05:11:42;100457.81;;;15.89;60.78
56241;BME280;42155;53.096;23.226;2023-05-22T05:13:42;100457.97;;;15.87;60.30
56241;BME280;42155;53.096;23.226;2023-05-22T05:15:43;100455.44;;;15.76;60.33
56241;BME280;42155;53.096;23.226;2023-05-22T05:17:43;100453.66;;;15.76;60.32
56241;BME280;42155;53.096;23.226;2023-05-22T05:19:43;100457.41;;;15.84;60.30
56241;BME280;42155;53.096;23.226;2023-05-22T05:21:44;100461.34;;;15.89;60.73
56241;BME280;42155;53.096;23.226;2023-05-22T05:23:44;100433.47;;;15.82;60.75
56241;BME280;42155;53.096;23.226;2023-05-22T05:25:44;100466.09;;;16.05;60.60
56241;BME280;42155;53.096;23.226;2023-05-22T05:27:45;100458.75;;;16.07;60.67
56241;BME280;42155;53.096;23.226;2023-05-22T05:29:45;100363.66;;;15.56;60.35
56241;BME280;42155;53.096;23.226;2023-05-22T05:31:45;100461.28;;;16.09;60.39
56241;BME280;42155;53.096;23.226;2023-05-22T05:33:46;100467.91;;;16.14;60.50
56241;BME280;42155;53.096;23.226;2023-05-22T05:35:46;100455.19;;;16.16;60.73
56241;BME280;42155;53.096;23.226;2023-05-22T05:37:46;100481.09;;;16.25;60.39
56241;BME280;42155;53.096;23.226;2023-05-22T05:39:47;100467.00;;;16.23;60.32
56241;BME280;42155;53.096;23.226;2023-05-22T05:41:47;100454.91;;;16.19;59.95
56241;BME280;42155;53.096;23.226;2023-05-22T05:43:48;100446.59;;;16.22;60.33
56241;BME280;42155;53.096;23.226;2023-05-22T05:45:48;100446.59;;;16.22;60.17
56241;BME280;42155;53.096;23.226;2023-05-22T05:47:48;100472.44;;;16.41;60.40
56241;BME280;42155;53.096;23.226;2023-05-22T05:49:49;100404.06;;;16.10;60.31
56241;BME280;42155;53.096;23.226;2023-05-22T05:51:49;100463.34;;;16.52;60.44
56241;BME280;42155;53.096;23.226;2023-05-22T05:53:49;100467.84;;;16.51;60.38
56241;BME280;42155;53.096;23.226;2023-05-22T05:55:49;100459.94;;;16.50;60.37
56241;BME280;42155;53.096;23.226;2023-05-22T05:57:50;100444.88;;;16.49;60.67
56241;BME280;42155;53.096;23.226;2023-05-22T05:59:50;100458.03;;;16.70;60.14
56241;BME280;42155;53.096;23.226;2023-05-22T06:01:50;100444.59;;;16.79;59.88
56241;BME280;42155;53.096;23.226;2023-05-22T06:03:51;100414.41;;;16.77;59.33
56241;BME280;42155;53.096;23.226;2023-05-22T06:05:52;100439.53;;;17.12;58.42
56241;BME280;42155;53.096;23.226;2023-05-22T06:07:52;100441.47;;;17.20;57.89
56241;BME280;42155;53.096;23.226;2023-05-22T06:09:52;100455.16;;;17.35;57.88
56241;BME280;42155;53.096;23.226;2023-05-22T06:11:53;100440.34;;;17.48;57.49
56241;BME280;42155;53.096;23.226;2023-05-22T06:13:53;100441.28;;;17.65;56.80
56241;BME280;42155;53.096;23.226;2023-05-22T06:15:54;100439.28;;;17.85;56.83
56241;BME280;42155;53.096;23.226;2023-05-22T06:17:54;100436.88;;;18.08;56.86
56241;BME280;42155;53.096;23.226;2023-05-22T06:19:54;100438.00;;;18.31;57.20
56241;BME280;42155;53.096;23.226;2023-05-22T06:21:55;100438.75;;;18.50;55.70
56241;BME280;42155;53.096;23.226;2023-05-22T06:23:55;100438.78;;;18.58;55.15
56241;BME280;42155;53.096;23.226;2023-05-22T06:25:55;100440.84;;;18.72;55.21
56241;BME280;42155;53.096;23.226;2023-05-22T06:27:56;100453.00;;;18.93;54.45
56241;BME280;42155;53.096;23.226;2023-05-22T06:29:56;100430.81;;;18.91;53.84
56241;BME280;42155;53.096;23.226;2023-05-22T06:31:56;100450.31;;;19.17;53.94
56241;BME280;42155;53.096;23.226;2023-05-22T06:33:57;100438.88;;;19.40;53.35
56241;BME280;42155;53.096;23.226;2023-05-22T06:35:57;100441.25;;;19.51;52.40
56241;BME280;42155;53.096;23.226;2023-05-22T06:37:57;100430.63;;;19.41;52.14
56241;BME280;42155;53.096;23.226;2023-05-22T06:39:58;100430.81;;;19.48;52.64
56241;BME280;42155;53.096;23.226;2023-05-22T06:41:58;100399.16;;;19.58;52.92
56241;BME280;42155;53.096;23.226;2023-05-22T06:43:58;100416.78;;;19.93;52.07
56241;BME280;42155;53.096;23.226;2023-05-22T06:45:59;100418.88;;;20.22;50.94
56241;BME280;42155;53.096;23.226;2023-05-22T06:47:59;100412.53;;;20.46;50.50
56241;BME280;42155;53.096;23.226;2023-05-22T06:49:59;100426.81;;;20.63;49.98
56241;BME280;42155;53.096;23.226;2023-05-22T06:52:00;100377.66;;;20.45;49.89
56241;BME280;42155;53.096;23.226;2023-05-22T06:54:00;100399.09;;;20.69;49.18
56241;BME280;42155;53.096;23.226;2023-05-22T06:56:00;100415.44;;;20.99;48.35
56241;BME280;42155;53.096;23.226;2023-05-22T06:58:01;100407.00;;;21.17;48.81
56241;BME280;42155;53.096;23.226;2023-05-22T07:00:02;100385.38;;;21.02;48.91
56241;BME280;42155;53.096;23.226;2023-05-22T07:02:02;100418.03;;;21.30;48.91
56241;BME280;42155;53.096;23.226;2023-05-22T07:04:03;100364.56;;;21.10;48.41
56241;BME280;42155;53.096;23.226;2023-05-22T07:06:03;100422.50;;;21.46;47.72
56241;BME280;42155;53.096;23.226;2023-05-22T07:08:04;100413.81;;;21.73;47.24
56241;BME280;42155;53.096;23.226;2023-05-22T07:10:05;100408.88;;;22.06;46.42
56241;BME280;42155;53.096;23.226;2023-05-22T07:12:05;100413.38;;;22.50;46.12
56241;BME280;42155;53.096;23.226;2023-05-22T07:14:06;100371.75;;;22.66;44.38
56241;BME280;42155;53.096;23.226;2023-05-22T07:16:06;100411.22;;;23.18;44.86
56241;BME280;42155;53.096;23.226;2023-05-22T07:18:07;100401.44;;;23.67;43.95
56241;BME280;42155;53.096;23.226;2023-05-22T07:20:08;100375.38;;;24.00;43.93
56241;BME280;42155;53.096;23.226;2023-05-22T07:22:08;100398.72;;;24.43;43.60
56241;BME280;42155;53.096;23.226;2023-05-22T07:24:09;100398.78;;;24.56;43.41
56241;BME280;42155;53.096;23.226;2023-05-22T07:26:09;100342.63;;;24.50;42.57
56241;BME280;42155;53.096;23.226;2023-05-22T07:28:09;100399.66;;;24.76;41.71
56241;BME280;42155;53.096;23.226;2023-05-22T07:30:10;100404.69;;;24.86;41.61
56241;BME280;42155;53.096;23.226;2023-05-22T07:32:11;100398.00;;;24.75;41.57
56241;BME280;42155;53.096;23.226;2023-05-22T07:34:11;100398.38;;;24.59;41.46
56241;BME280;42155;53.096;23.226;2023-05-22T07:36:11;100400.63;;;24.42;41.84
56241;BME280;42155;53.096;23.226;2023-05-22T07:38:12;100399.25;;;24.25;41.45
56241;BME280;42155;53.096;23.226;2023-05-22T07:40:12;100398.41;;;24.24;41.88
56241;BME280;42155;53.096;23.226;2023-05-22T07:42:12;100379.81;;;24.21;41.72
56241;BME280;42155;53.096;23.226;2023-05-22T07:44:13;100377.94;;;24.15;41.29
56241;BME280;42155;53.096;23.226;2023-05-22T07:46:13;100394.66;;;24.25;41.03
56241;BME280;42155;53.096;23.226;2023-05-22T07:48:13;100382.47;;;24.43;41.06
56241;BME280;42155;53.096;23.226;2023-05-22T07:50:14;100383.16;;;24.71;39.70
56241;BME280;42155;53.096;23.226;2023-05-22T07:52:14;100386.91;;;24.77;39.04
56241;BME280;42155;53.096;23.226;2023-05-22T07:54:15;100386.53;;;24.93;39.16
56241;BME280;42155;53.096;23.226;2023-05-22T07:56:15;100392.81;;;25.00;38.83
56241;BME280;42155;53.096;23.226;2023-05-22T07:58:15;100383.63;;;24.95;38.31
56241;BME280;42155;53.096;23.226;2023-05-22T08:00:16;100379.91;;;25.09;38.36
56241;BME280;42155;53.096;23.226;2023-05-22T08:02:17;100378.44;;;25.26;37.10
56241;BME280;42155;53.096;23.226;2023-05-22T08:04:17;100377.84;;;25.24;37.31
56241;BME280;42155;53.096;23.226;2023-05-22T08:06:18;100374.06;;;25.12;38.63
56241;BME280;42155;53.096;23.226;2023-05-22T08:08:18;100370.50;;;25.18;38.09
56241;BME280;42155;53.096;23.226;2023-05-22T08:10:18;100354.41;;;25.23;37.95
56241;BME280;42155;53.096;23.226;2023-05-22T08:12:19;100384.47;;;25.55;37.44
56241;BME280;42155;53.096;23.226;2023-05-22T08:14:20;100367.53;;;25.73;36.78
56241;BME280;42155;53.096;23.226;2023-05-22T08:16:21;100376.09;;;25.89;35.64
56241;BME280;42155;53.096;23.226;2023-05-22T08:18:21;100370.28;;;25.79;35.14
56241;BME280;42155;53.096;23.226;2023-05-22T08:20:22;100371.53;;;25.57;35.31
56241;BME280;42155;53.096;23.226;2023-05-22T08:22:22;100375.25;;;25.69;35.23
56241;BME280;42155;53.096;23.226;2023-05-22T08:24:24;100372.13;;;25.85;34.27
56241;BME280;42155;53.096;23.226;2023-05-22T08:26:24;100374.81;;;25.99;33.20
56241;BME280;42155;53.096;23.226;2023-05-22T08:28:25;100373.06;;;26.11;34.56
56241;BME280;42155;53.096;23.226;2023-05-22T08:30:25;100363.25;;;26.10;32.72
56241;BME280;42155;53.096;23.226;2023-05-22T08:32:25;100366.91;;;25.84;33.48
56241;BME280;42155;53.096;23.226;2023-05-22T08:34:26;100385.72;;;25.59;33.07
56241;BME280;42155;53.096;23.226;2023-05-22T08:36:27;100305.72;;;25.22;33.69
56241;BME280;42155;53.096;23.226;2023-05-22T08:38:27;100332.41;;;25.64;33.49
56241;BME280;42155;53.096;23.226;2023-05-22T08:40:34;100355.13;;;26.03;33.44
56241;BME280;42155;53.096;23.226;2023-05-22T08:42:34;100346.50;;;26.13;32.89
56241;BME280;42155;53.096;23.226;2023-05-22T08:44:34;100372.56;;;26.34;32.14
56241;BME280;42155;53.096;23.226;2023-05-22T08:46:36;100364.56;;;26.39;32.79
56241;BME280;42155;53.096;23.226;2023-05-22T08:48:37;100313.97;;;25.93;32.80
56241;BME280;42155;53.096;23.226;2023-05-22T08:50:40;100363.00;;;26.18;32.51
56241;BME280;42155;53.096;23.226;2023-05-22T08:52:51;100362.19;;;26.18;33.21
56241;BME280;42155;53.096;23.226;2023-05-22T08:54:53;100356.34;;;26.14;32.84
56241;BME280;42155;53.096;23.226;2023-05-22T08:56:54;100355.09;;;26.10;32.32
56241;BME280;42155;53.096;23.226;2023-05-22T08:58:55;100363.28;;;25.97;32.60
56241;BME280;42155;53.096;23.226;2023-05-22T09:00:57;100346.00;;;25.71;33.31
56241;BME280;42155;53.096;23.226;2023-05-22T09:02:58;100312.56;;;25.57;32.96
56241;BME280;42155;53.096;23.226;2023-05-22T09:04:58;100358.25;;;26.07;33.15
56241;BME280;42155;53.096;23.226;2023-05-22T09:06:59;100356.09;;;26.22;33.48
56241;BME280;42155;53.096;23.226;2023-05-22T09:08:59;100352.25;;;26.43;33.87
56241;BME280;42155;53.096;23.226;2023-05-22T09:10:59;100346.88;;;26.68;32.27
56241;BME280;42155;53.096;23.226;2023-05-22T09:13:05;100338.94;;;26.91;32.65
56241;BME280;42155;53.096;23.226;2023-05-22T09:15:07;100352.84;;;27.15;31.54
56241;BME280;42155;53.096;23.226;2023-05-22T09:17:15;100345.91;;;26.87;30.86
56241;BME280;42155;53.096;23.226;2023-05-22T09:19:15;100334.13;;;26.62;31.52
56241;BME280;42155;53.096;23.226;2023-05-22T09:21:16;100347.69;;;26.69;32.85
56241;BME280;42155;53.096;23.226;2023-05-22T09:23:16;100353.91;;;26.82;33.09
56241;BME280;42155;53.096;23.226;2023-05-22T09:25:18;100343.34;;;26.92;32.20
56241;BME280;42155;53.096;23.226;2023-05-22T09:27:21;100334.56;;;26.90;33.90
56241;BME280;42155;53.096;23.226;2023-05-22T09:29:22;100300.94;;;26.78;33.53
56241;BME280;42155;53.096;23.226;2023-05-22T09:31:22;100339.88;;;26.79;32.19
56241;BME280;42155;53.096;23.226;2023-05-22T09:33:23;100310.16;;;26.39;32.64
56241;BME280;42155;53.096;23.226;2023-05-22T09:35:24;100334.41;;;26.54;32.67
56241;BME280;42155;53.096;23.226;2023-05-22T09:37:27;100283.69;;;26.21;32.13
56241;BME280;42155;53.096;23.226;2023-05-22T09:39:43;100338.13;;;26.59;32.26
56241;BME280;42155;53.096;23.226;2023-05-22T09:41:44;100323.94;;;26.51;32.39
56241;BME280;42155;53.096;23.226;2023-05-22T09:43:50;100321.97;;;26.26;32.72
56241;BME280;42155;53.096;23.226;2023-05-22T09:46:00;100308.09;;;25.89;32.35
56241;BME280;42155;53.096;23.226;2023-05-22T09:48:02;100306.03;;;25.65;32.37
56241;BME280;42155;53.096;23.226;2023-05-22T09:50:03;100304.56;;;25.89;32.80
56241;BME280;42155;53.096;23.226;2023-05-22T09:52:07;100306.94;;;26.17;32.99
56241;BME280;42155;53.096;23.226;2023-05-22T09:54:09;100303.69;;;26.33;31.38
56241;BME280;42155;53.096;23.226;2023-05-22T09:56:12;100308.47;;;26.38;31.68
56241;BME280;42155;53.096;23.226;2023-05-22T09:58:17;100308.69;;;26.43;32.35
56241;BME280;42155;53.096;23.226;2023-05-22T10:00:18;100303.13;;;26.25;31.48
56241;BME280;42155;53.096;23.226;2023-05-22T10:02:21;100304.88;;;26.06;31.58
56241;BME280;42155;53.096;23.226;2023-05-22T10:04:22;100293.63;;;25.96;30.88
56241;BME280;42155;53.096;23.226;2023-05-22T10:06:23;100244.81;;;25.62;31.09
56241;BME280;42155;53.096;23.226;2023-05-22T10:08:27;100288.91;;;25.71;30.58
56241;BME280;42155;53.096;23.226;2023-05-22T10:10:32;100292.94;;;25.49;31.54
56241;BME280;42155;53.096;23.226;2023-05-22T10:13:00;100299.19;;;25.49;31.54
56241;BME280;42155;53.096;23.226;2023-05-22T10:14:59;100299.22;;;25.43;31.65
56241;BME280;42155;53.096;23.226;2023-05-22T10:17:00;100296.28;;;25.37;32.03
56241;BME280;42155;53.096;23.226;2023-05-22T10:19:01;100283.81;;;25.17;31.95
56241;BME280;42155;53.096;23.226;2023-05-22T10:21:01;100296.13;;;25.06;33.55
56241;BME280;42155;53.096;23.226;2023-05-22T10:23:02;100252.88;;;24.71;33.79
56241;BME280;42155;53.096;23.226;2023-05-22T10:25:03;100275.00;;;24.75;34.90
56241;BME280;42155;53.096;23.226;2023-05-22T10:27:04;100296.31;;;24.84;34.68
56241;BME280;42155;53.096;23.226;2023-05-22T10:29:14;100284.41;;;24.72;34.70
56241;BME280;42155;53.096;23.226;2023-05-22T10:31:33;100300.50;;;24.74;33.66
56241;BME280;42155;53.096;23.226;2023-05-22T10:33:40;100295.25;;;24.46;33.90
56241;BME280;42155;53.096;23.226;2023-05-22T10:35:53;100267.13;;;24.05;33.26
56241;BME280;42155;53.096;23.226;2023-05-22T10:40:29;100300.63;;;23.84;34.02